Hai Hua — XUDB9 — position and weather

sailwx.info

Track history (hours):
 
Tides and Currents Weather Stations Pressure Air Temp Water Temp Dewpoint Dewpoint Depression Visibility Wind Speed Wind Dir Waves Ship Positions

Hai Hua

Last reported at 2015-Apr-12 01:09 UTC. Time now 2015-Apr-21 08:16 UTC.
Position N 36°52' E 122°23'.
Warning: this ship's position is 9 days out of date.

Length 69 m; draft 3.5 m.

Type: Cargo ship. MMSI: 515171000.

Date/timePositionNaut miles runAvg speedWind from/ knotsBaromVisibWave heightAir tempDewpointWater temp
2015-Apr-12 01:09N 36°52' E 122°23'2 3.6
2015-Apr-12 00:33N 36°50' E 122°25'2 1.6
2015-Apr-11 23:32N 36°48' E 122°25'6 5.9
2015-Apr-11 22:33N 36°44' E 122°20'12 8.9
2015-Apr-11 21:14N 36°36' E 122°10'7710.1
2015-Apr-11 13:33N 35°60' E 120°45'10 8.8
2015-Apr-11 12:24N 35°59' E 120°33'7 7.7
2015-Apr-11 11:33N 36°00' E 120°25'8 7.5
2015-Apr-11 10:34N 36°02' E 120°16'1 0.1
2015-Apr-11 04:11N 36°02' E 120°16'5 7.9
2015-Apr-11 03:33N 36°01' E 120°22'10 9.8
2015-Apr-11 02:33N 35°59' E 120°34'28 9.4
2015-Apr-10 23:32N 35°39' E 120°59'5210.1
2015-Apr-10 18:21N 34°52' E 121°28'8 9.3
2015-Apr-10 17:32N 34°46' E 121°33'9 9.1
2015-Apr-10 16:33N 34°39' E 121°39'9 9.0
2015-Apr-10 15:31N 34°31' E 121°46'9 8.9
2015-Apr-10 14:32N 34°23' E 121°51'10 8.6
2015-Apr-10 13:22N 34°14' E 121°56'7 8.5
2015-Apr-10 12:33N 34°07' E 121°57'21 9.5
2015-Apr-10 10:21N 33°47' E 122°03'165 8.2
2015-Apr-09 14:10N 31°02' E 122°16'5 7.3
2015-Apr-09 13:30N 31°03' E 122°10'1010.2
2015-Apr-09 12:33N 31°06' E 121°59'1212.2
2015-Apr-09 11:33N 31°13' E 121°48'1211.8
2015-Apr-09 10:33N 31°21' E 121°38'7 7.2
2015-Apr-09 09:33N 31°22' E 121°30'1 1.1
2015-Apr-09 08:29N 31°21' E 121°31'0 0.0
2015-Apr-09 07:26N 31°21' E 121°31'0 0.0
2015-Apr-09 06:20N 31°21' E 121°31'0 0.0
2015-Apr-09 05:29N 31°21' E 121°31'0 0.0
2015-Apr-09 04:29N 31°21' E 121°31'0 0.0
2015-Apr-09 03:23N 31°21' E 121°31'0 0.0
2015-Apr-09 02:32N 31°21' E 121°31'0 0.0
2015-Apr-09 01:20N 31°21' E 121°31'0 0.0
2015-Apr-09 00:29N 31°21' E 121°31'0 0.0
2015-Apr-08 23:20N 31°21' E 121°31'0 0.0
2015-Apr-08 22:32N 31°21' E 121°31'0 0.0
2015-Apr-08 21:33N 31°21' E 121°31'3 3.4
2015-Apr-08 20:33N 31°24' E 121°33'9 9.3
2015-Apr-08 19:33N 31°19' E 121°43'9 8.9
2015-Apr-08 18:33N 31°12' E 121°50'1110.6
2015-Apr-08 17:33N 31°06' E 121°59'1110.6
2015-Apr-08 16:33N 31°03' E 122°12'  
Track history (hours):
 
Tides and Currents Weather Stations Pressure Air Temp Water Temp Dewpoint Dewpoint Depression Visibility Wind Speed Wind Dir Waves Ship Positions

Hai Hua

Last reported at 2015-Apr-12 01:09 UTC. Time now 2015-Apr-21 08:16 UTC.
Position N 36°52' E 122°23'.
Warning: this ship's position is 9 days out of date.

Length 69 m; draft 3.5 m.

Type: Cargo ship. MMSI: 515171000.

Date/timePositionNaut miles runAvg speedWind from/ knotsBaromVisibWave heightAir tempDewpointWater temp
2015-Apr-12 01:09N 36°52' E 122°23'2 3.6
2015-Apr-12 00:33N 36°50' E 122°25'2 1.6
2015-Apr-11 23:32N 36°48' E 122°25'6 5.9
2015-Apr-11 22:33N 36°44' E 122°20'12 8.9
2015-Apr-11 21:14N 36°36' E 122°10'7710.1
2015-Apr-11 13:33N 35°60' E 120°45'10 8.8
2015-Apr-11 12:24N 35°59' E 120°33'7 7.7
2015-Apr-11 11:33N 36°00' E 120°25'8 7.5
2015-Apr-11 10:34N 36°02' E 120°16'1 0.1
2015-Apr-11 04:11N 36°02' E 120°16'5 7.9
2015-Apr-11 03:33N 36°01' E 120°22'10 9.8
2015-Apr-11 02:33N 35°59' E 120°34'28 9.4
2015-Apr-10 23:32N 35°39' E 120°59'5210.1
2015-Apr-10 18:21N 34°52' E 121°28'8 9.3
2015-Apr-10 17:32N 34°46' E 121°33'9 9.1
2015-Apr-10 16:33N 34°39' E 121°39'9 9.0
2015-Apr-10 15:31N 34°31' E 121°46'9 8.9
2015-Apr-10 14:32N 34°23' E 121°51'10 8.6
2015-Apr-10 13:22N 34°14' E 121°56'7 8.5
2015-Apr-10 12:33N 34°07' E 121°57'21 9.5
2015-Apr-10 10:21N 33°47' E 122°03'165 8.2
2015-Apr-09 14:10N 31°02' E 122°16'5 7.3
2015-Apr-09 13:30N 31°03' E 122°10'1010.2
2015-Apr-09 12:33N 31°06' E 121°59'1212.2
2015-Apr-09 11:33N 31°13' E 121°48'1211.8
2015-Apr-09 10:33N 31°21' E 121°38'7 7.2
2015-Apr-09 09:33N 31°22' E 121°30'1 1.1
2015-Apr-09 08:29N 31°21' E 121°31'0 0.0
2015-Apr-09 07:26N 31°21' E 121°31'0 0.0
2015-Apr-09 06:20N 31°21' E 121°31'0 0.0
2015-Apr-09 05:29N 31°21' E 121°31'0 0.0
2015-Apr-09 04:29N 31°21' E 121°31'0 0.0
2015-Apr-09 03:23N 31°21' E 121°31'0 0.0
2015-Apr-09 02:32N 31°21' E 121°31'0 0.0
2015-Apr-09 01:20N 31°21' E 121°31'0 0.0
2015-Apr-09 00:29N 31°21' E 121°31'0 0.0
2015-Apr-08 23:20N 31°21' E 121°31'0 0.0
2015-Apr-08 22:32N 31°21' E 121°31'0 0.0
2015-Apr-08 21:33N 31°21' E 121°31'3 3.4
2015-Apr-08 20:33N 31°24' E 121°33'9 9.3
2015-Apr-08 19:33N 31°19' E 121°43'9 8.9
2015-Apr-08 18:33N 31°12' E 121°50'1110.6
2015-Apr-08 17:33N 31°06' E 121°59'1110.6
2015-Apr-08 16:33N 31°03' E 122°12'  

Dump ship's entire track history